Time;durP1;ratioP1;P1;durP2;ratioP2;P2;SDS_P1;SDS_P2;PMS_P1;PMS_P2;Temp;Humidity;BMP_temperature;BMP_pressure;BME280_temperature;BME280_humidity;BME280_pressure;Samples;Min_cycle;Max_cycle;Signal;HPM_P1;HPM_P2
2021/07/13 00:02:12;;;;;;;;;;;;;;;26.19;51.07;100503.33;1739037;81;20576;-49
2021/07/13 00:04:38;;;;;;;;;;;;;;;26.19;51.12;100503.33;1738776;81;20718;-50
2021/07/13 00:07:04;;;;;;;;;;;;;;;26.20;51.15;100501.38;1780752;79;20773;-48
2021/07/13 00:09:30;;;;;;;;;;;;;;;26.21;51.18;100503.81;1742651;81;20159;-48
2021/07/13 00:11:59;;;;;;;;;;;;;;;26.21;51.21;100503.81;1714554;82;23201;-51
2021/07/13 00:14:26;;;;;;;;;;;;;;;26.22;51.27;100501.84;1736179;81;20378;-48
2021/07/13 00:16:52;;;;;;;;;;;;;;;26.22;51.29;100501.84;1800512;79;20146;-47
2021/07/13 00:19:17;;;;;;;;;;;;;;;26.23;51.31;100506.22;1785481;79;20223;-48
2021/07/13 00:21:44;;;;;;;;;;;;;;;26.21;51.36;100501.03;1777381;79;20477;-47
2021/07/13 00:24:10;;;;;;;;;;;;;;;26.22;51.38;100493.48;1738371;80;21024;-46
2021/07/13 00:26:36;;;;;;;;;;;;;;;26.22;51.44;100491.50;1754178;80;20125;-46
2021/07/13 00:29:03;;;;;;;;;;;;;;;26.22;51.46;100490.69;1726921;81;20200;-47
2021/07/13 00:31:29;;;;;;;;;;;;;;;26.23;51.50;100496.47;1729311;81;20232;-47
2021/07/13 00:33:57;;;;;;;;;;;;;;;26.23;51.53;100498.67;1733381;81;20184;-47
2021/07/13 00:36:24;;;;;;;;;;;;;;;26.23;51.56;100492.28;1732874;80;21137;-48
2021/07/13 00:38:50;;;;;;;;;;;;;;;26.23;51.60;100490.30;1728275;81;20169;-48
2021/07/13 00:41:16;;;;;;;;;;;;;;;26.23;51.63;100484.73;1686986;83;20349;-48
2021/07/13 00:43:42;;;;;;;;;;;;;;;26.23;51.68;100488.91;1710088;81;20195;-48
2021/07/13 00:46:08;;;;;;;;;;;;;;;26.23;51.70;100484.73;1724833;81;20765;-47
2021/07/13 00:48:34;;;;;;;;;;;;;;;26.24;51.75;100487.75;1724849;81;21159;-51
2021/07/13 00:51:03;;;;;;;;;;;;;;;26.24;51.75;100487.75;1699236;82;20773;-50
2021/07/13 00:53:27;;;;;;;;;;;;;;;26.23;51.80;100491.70;1723188;81;20489;-49
2021/07/13 00:55:54;;;;;;;;;;;;;;;26.25;51.83;100484.37;1723728;81;20793;-47
2021/07/13 00:58:20;;;;;;;;;;;;;;;26.25;51.86;100489.95;1727166;81;20285;-46
2021/07/13 01:00:47;;;;;;;;;;;;;;;26.24;51.90;100489.14;1740121;81;21360;-48
2021/07/13 01:03:14;;;;;;;;;;;;;;;26.24;51.94;100493.33;1733516;80;20087;-48
2021/07/13 01:05:42;;;;;;;;;;;;;;;26.24;51.95;100494.72;1715512;82;20162;-47
2021/07/13 01:08:47;;;;;;;;;;;;;;;26.25;52.00;100488.56;1736755;81;20412;-48
2021/07/13 01:11:20;;;;;;;;;;;;;;;26.24;52.03;100490.53;1737938;81;20445;-47
2021/07/13 01:13:59;;;;;;;;;;;;;;;26.24;52.07;100481.36;1734686;80;21122;-49
2021/07/13 01:16:33;;;;;;;;;;;;;;;26.23;52.10;100493.67;1736573;81;20164;-50
2021/07/13 01:19:03;;;;;;;;;;;;;;;26.23;52.14;100494.48;1725610;82;20470;-50
2021/07/13 01:21:32;;;;;;;;;;;;;;;26.22;52.14;100492.89;1714502;82;20256;-51
2021/07/13 01:24:30;;;;;;;;;;;;;;;26.23;52.19;100492.28;1705407;82;20189;-48
2021/07/13 01:27:22;;;;;;;;;;;;;;;26.24;52.21;100499.48;1706984;82;21333;-48
2021/07/13 01:29:48;;;;;;;;;;;;;;;26.21;52.23;100495.45;1723967;81;20570;-49
2021/07/13 01:32:17;;;;;;;;;;;;;;;26.22;52.26;100494.29;1715139;82;20742;-49
2021/07/13 01:34:47;;;;;;;;;;;;;;;26.21;52.27;100484.30;1716435;82;20951;-51
2021/07/13 01:37:13;;;;;;;;;;;;;;;26.22;52.30;100480.92;1698230;82;20203;-49
2021/07/13 01:39:39;;;;;;;;;;;;;;;26.21;52.33;100481.52;1727379;82;23343;-52
2021/07/13 01:42:07;;;;;;;;;;;;;;;26.21;52.35;100482.91;1726238;82;20201;-51
2021/07/13 01:44:33;;;;;;;;;;;;;;;26.21;52.41;100485.69;1750950;81;20241;-49
2021/07/13 01:46:58;;;;;;;;;;;;;;;26.20;52.43;100484.06;1750656;80;20203;-49
2021/07/13 01:49:25;;;;;;;;;;;;;;;26.21;52.44;100488.48;1749000;80;20248;-49
2021/07/13 01:51:52;;;;;;;;;;;;;;;26.21;52.50;100489.06;1747741;81;21087;-49
2021/07/13 01:54:18;;;;;;;;;;;;;;;26.21;52.51;100487.09;1749258;80;20188;-49
2021/07/13 01:56:45;;;;;;;;;;;;;;;26.21;52.55;100477.91;1705306;81;20218;-50
2021/07/13 01:59:14;;;;;;;;;;;;;;;26.20;52.57;100479.89;1687483;84;20156;-49
2021/07/13 02:01:40;;;;;;;;;;;;;;;26.21;52.61;100477.33;1698239;82;20201;-49
2021/07/13 02:04:06;;;;;;;;;;;;;;;26.19;52.64;100472.66;1713416;81;21140;-49
2021/07/13 02:06:32;;;;;;;;;;;;;;;26.20;52.67;100471.52;1717781;81;20235;-48
2021/07/13 02:08:59;;;;;;;;;;;;;;;26.20;52.69;100469.31;1710913;81;20169;-48
2021/07/13 02:11:26;;;;;;;;;;;;;;;26.20;52.73;100474.89;1708972;83;20832;-51
2021/07/13 02:13:52;;;;;;;;;;;;;;;26.20;52.75;100472.10;1717681;81;20152;-49
2021/07/13 02:16:19;;;;;;;;;;;;;;;26.21;52.79;100480.70;1715534;81;21194;-50
2021/07/13 02:18:47;;;;;;;;;;;;;;;26.20;52.80;100478.49;1715803;81;20403;-50
2021/07/13 02:21:14;;;;;;;;;;;;;;;26.20;52.81;100486.86;1720055;81;20201;-51
2021/07/13 02:23:42;;;;;;;;;;;;;;;26.19;52.87;100485.20;1734108;81;20467;-51
2021/07/13 02:26:08;;;;;;;;;;;;;;;26.20;52.88;100488.83;1725726;81;20132;-52
2021/07/13 02:28:37;;;;;;;;;;;;;;;26.19;52.91;100487.18;1728441;80;21147;-49
2021/07/13 02:31:07;;;;;;;;;;;;;;;26.19;52.91;100489.97;1719933;80;20194;-48
2021/07/13 02:33:48;;;;;;;;;;;;;;;26.18;52.96;100486.36;1738269;81;20181;-51
2021/07/13 02:36:16;;;;;;;;;;;;;;;26.18;53.00;100486.36;1731447;80;20422;-50
2021/07/13 02:38:42;;;;;;;;;;;;;;;26.18;52.98;100486.36;1737517;80;20163;-48
2021/07/13 02:41:08;;;;;;;;;;;;;;;26.18;53.02;100486.36;1723929;81;21071;-48
2021/07/13 02:43:34;;;;;;;;;;;;;;;26.18;53.04;100484.97;1738585;80;20254;-48
2021/07/13 02:46:00;;;;;;;;;;;;;;;26.17;53.06;100480.59;1712990;80;20438;-50
2021/07/13 02:48:26;;;;;;;;;;;;;;;26.18;53.08;100482.80;1740233;81;20678;-49
2021/07/13 02:50:53;;;;;;;;;;;;;;;26.18;53.11;100486.98;1739278;81;20174;-49
2021/07/13 02:53:19;;;;;;;;;;;;;;;26.17;53.15;100481.98;1737872;81;21172;-49
2021/07/13 02:55:45;;;;;;;;;;;;;;;26.17;53.18;100488.95;1742328;81;20185;-51
2021/07/13 02:58:11;;;;;;;;;;;;;;;26.16;53.18;100483.15;1737866;81;20659;-50
2021/07/13 03:00:37;;;;;;;;;;;;;;;26.17;53.21;100483.96;1737164;81;20496;-48
2021/07/13 03:03:03;;;;;;;;;;;;;;;26.16;53.23;100485.13;1739761;80;20159;-51
2021/07/13 03:05:29;;;;;;;;;;;;;;;26.16;53.25;100484.55;1737894;82;20998;-48
2021/07/13 03:07:55;;;;;;;;;;;;;;;26.18;53.27;100482.80;1740642;80;20398;-49
2021/07/13 03:10:22;;;;;;;;;;;;;;;26.17;53.29;100483.38;1727855;82;20227;-49
2021/07/13 03:12:49;;;;;;;;;;;;;;;26.15;53.31;100484.31;1746450;81;20173;-50
2021/07/13 03:15:15;;;;;;;;;;;;;;;26.16;53.33;100477.57;1738837;81;20144;-52
2021/07/13 03:17:41;;;;;;;;;;;;;;;26.16;53.35;100474.78;1725667;82;23369;-51
2021/07/13 03:20:08;;;;;;;;;;;;;;;26.16;53.38;100470.60;1731553;82;20140;-48
2021/07/13 03:22:36;;;;;;;;;;;;;;;26.16;53.38;100476.77;1739222;81;20469;-50
2021/07/13 03:25:03;;;;;;;;;;;;;;;26.17;53.43;100469.44;1738578;81;20226;-51
2021/07/13 03:27:30;;;;;;;;;;;;;;;26.16;53.44;100467.00;1740960;81;20636;-48
2021/07/13 03:29:57;;;;;;;;;;;;;;;26.15;53.45;100468.98;1752027;81;21115;-48
2021/07/13 03:32:23;;;;;;;;;;;;;;;26.16;53.48;100472.00;1751274;80;20411;-48
2021/07/13 03:34:49;;;;;;;;;;;;;;;26.16;53.49;100476.17;1754251;80;20187;-49
2021/07/13 03:37:15;;;;;;;;;;;;;;;26.16;53.52;100478.16;1741182;80;20203;-49
2021/07/13 03:39:41;;;;;;;;;;;;;;;26.15;53.53;100471.77;1751798;81;20631;-48
2021/07/13 03:42:07;;;;;;;;;;;;;;;26.15;53.56;100470.38;1758817;80;21155;-50
2021/07/13 03:44:34;;;;;;;;;;;;;;;26.16;53.57;100469.79;1745759;81;20143;-49
2021/07/13 03:46:59;;;;;;;;;;;;;;;26.16;53.59;100467.00;1821250;77;20199;-52
2021/07/13 03:49:26;;;;;;;;;;;;;;;26.16;53.61;100468.39;1809423;77;20349;-52
2021/07/13 03:51:52;;;;;;;;;;;;;;;26.16;53.63;100472.00;1812683;77;20130;-52
2021/07/13 03:54:21;;;;;;;;;;;;;;;26.16;53.64;100476.17;1808909;77;21146;-49
2021/07/13 03:56:49;;;;;;;;;;;;;;;26.15;53.66;100471.77;1808790;77;20241;-49
2021/07/13 03:59:16;;;;;;;;;;;;;;;26.15;53.70;100473.16;1810906;77;20420;-49
2021/07/13 04:01:42;;;;;;;;;;;;;;;26.15;53.71;100475.95;1810915;77;20188;-49
2021/07/13 04:04:08;;;;;;;;;;;;;;;26.16;53.75;100480.94;1811136;77;20181;-48
2021/07/13 04:06:34;;;;;;;;;;;;;;;26.17;53.75;100483.38;1810280;77;21402;-49
2021/07/13 04:09:00;;;;;;;;;;;;;;;26.16;53.77;100485.13;1809196;77;20778;-51
2021/07/13 04:11:26;;;;;;;;;;;;;;;26.16;53.77;100480.94;1809372;77;20209;-49
2021/07/13 04:13:52;;;;;;;;;;;;;;;26.16;53.79;100485.94;1810711;77;20678;-51
2021/07/13 04:16:18;;;;;;;;;;;;;;;26.15;53.81;100481.52;1812250;77;20154;-50
2021/07/13 04:18:44;;;;;;;;;;;;;;;26.15;53.81;100482.92;1811019;77;21211;-49
2021/07/13 04:21:10;;;;;;;;;;;;;;;26.16;53.84;100479.55;1809522;77;20190;-50
2021/07/13 04:23:36;;;;;;;;;;;;;;;26.16;53.85;100485.13;1817696;77;20705;-50
2021/07/13 04:26:03;;;;;;;;;;;;;;;26.16;53.85;100488.73;1815408;77;20622;-51
2021/07/13 04:28:31;;;;;;;;;;;;;;;26.16;53.88;100490.12;1808419;77;20451;-49
2021/07/13 04:30:58;;;;;;;;;;;;;;;26.16;53.89;100495.70;1763652;79;21161;-52
2021/07/13 04:33:24;;;;;;;;;;;;;;;26.16;53.90;100499.06;1808196;77;20429;-50
2021/07/13 04:35:50;;;;;;;;;;;;;;;26.16;53.94;100497.09;1802920;78;20189;-53
2021/07/13 04:38:16;;;;;;;;;;;;;;;26.17;53.93;100495.92;1797887;78;20645;-51
2021/07/13 04:40:41;;;;;;;;;;;;;;;26.16;53.94;100499.88;1802487;78;20169;-51
2021/07/13 04:43:07;;;;;;;;;;;;;;;26.16;53.95;100492.91;1802854;78;21156;-54
2021/07/13 04:45:33;;;;;;;;;;;;;;;26.18;53.97;100493.95;1807322;78;20279;-51
2021/07/13 04:47:59;;;;;;;;;;;;;;;26.18;53.99;100503.09;1803760;78;20180;-52
2021/07/13 04:50:26;;;;;;;;;;;;;;;26.18;54.02;100503.70;1804460;78;20157;-49
2021/07/13 04:52:51;;;;;;;;;;;;;;;26.18;54.02;100499.53;1802020;78;20190;-49
2021/07/13 04:55:18;;;;;;;;;;;;;;;26.19;54.05;100503.91;1800220;78;21103;-50
2021/07/13 04:57:44;;;;;;;;;;;;;;;26.19;54.06;100503.33;1802965;78;20423;-49
2021/07/13 05:00:11;;;;;;;;;;;;;;;26.18;54.07;100503.70;1799559;78;20192;-53
2021/07/13 05:02:37;;;;;;;;;;;;;;;26.18;54.07;100502.31;1802423;78;20194;-48
2021/07/13 05:05:05;;;;;;;;;;;;;;;26.19;54.09;100504.72;1803553;78;20721;-49
2021/07/13 05:07:31;;;;;;;;;;;;;;;26.18;54.07;100503.70;1801607;78;21133;-50
2021/07/13 05:09:57;;;;;;;;;;;;;;;26.18;54.10;100505.89;1801994;78;20173;-51
2021/07/13 05:12:23;;;;;;;;;;;;;;;26.19;54.12;100502.52;1805554;78;20302;-48
2021/07/13 05:14:48;;;;;;;;;;;;;;;26.18;54.13;100498.91;1805469;78;20755;-51
2021/07/13 05:17:14;;;;;;;;;;;;;;;26.19;54.14;100505.30;1803363;78;20406;-50
2021/07/13 05:19:43;;;;;;;;;;;;;;;26.19;54.16;100505.30;1796055;79;21315;-51
2021/07/13 05:22:09;;;;;;;;;;;;;;;26.19;54.15;100508.91;1782700;78;20231;-52
2021/07/13 05:24:35;;;;;;;;;;;;;;;26.19;54.18;100511.69;1775960;79;20574;-52
2021/07/13 05:27:02;;;;;;;;;;;;;;;26.19;54.19;100506.12;1799785;78;20779;-52
2021/07/13 05:29:28;;;;;;;;;;;;;;;26.20;54.19;100511.14;1807916;77;20221;-52
2021/07/13 05:31:53;;;;;;;;;;;;;;;26.19;54.20;100508.91;1809912;78;21187;-50
2021/07/13 05:34:19;;;;;;;;;;;;;;;26.19;54.21;100508.91;1806941;77;20746;-49
2021/07/13 05:36:45;;;;;;;;;;;;;;;26.20;54.20;100507.77;1807822;77;20176;-51
2021/07/13 05:39:11;;;;;;;;;;;;;;;26.19;54.25;100501.13;1809270;77;20158;-52
2021/07/13 05:41:37;;;;;;;;;;;;;;;26.20;54.25;100510.56;1811578;77;20214;-51
2021/07/13 05:44:06;;;;;;;;;;;;;;;26.20;54.24;100504.98;1811665;77;21053;-53
2021/07/13 05:46:33;;;;;;;;;;;;;;;26.20;54.26;100507.77;1811626;77;20498;-52
2021/07/13 05:48:59;;;;;;;;;;;;;;;26.20;54.27;100506.95;1810052;77;20146;-53
2021/07/13 05:51:25;;;;;;;;;;;;;;;26.20;54.28;100509.17;1809115;78;22288;-49
2021/07/13 05:53:51;;;;;;;;;;;;;;;26.21;54.28;100509.98;1807554;77;20216;-51
2021/07/13 05:56:16;;;;;;;;;;;;;;;26.20;54.31;100509.17;1810066;77;21185;-49
2021/07/13 05:58:42;;;;;;;;;;;;;;;26.21;54.32;100515.55;1809277;78;21045;-51
2021/07/13 06:01:08;;;;;;;;;;;;;;;26.21;54.33;100514.16;1808317;77;20545;-51
2021/07/13 06:03:34;;;;;;;;;;;;;;;26.21;54.33;100512.19;1816139;77;20157;-48
2021/07/13 06:06:01;;;;;;;;;;;;;;;26.21;54.34;100517.77;1808328;79;20161;-48
2021/07/13 06:08:27;;;;;;;;;;;;;;;26.22;54.37;100519.39;1811011;77;21141;-50
2021/07/13 06:10:53;;;;;;;;;;;;;;;26.23;54.39;100520.17;1811014;77;21054;-53
2021/07/13 06:13:19;;;;;;;;;;;;;;;26.23;54.42;100527.14;1812765;77;20220;-54
2021/07/13 06:15:46;;;;;;;;;;;;;;;26.22;54.46;100515.78;1811826;78;20225;-49
2021/07/13 06:18:17;;;;;;;;;;;;;;;26.23;54.51;100522.38;1811904;77;20177;-51
2021/07/13 06:20:43;;;;;;;;;;;;;;;26.23;54.54;100515.98;1826128;77;21107;-48
2021/07/13 06:23:09;;;;;;;;;;;;;;;26.24;54.58;100524.00;1814553;77;20530;-52
2021/07/13 06:25:35;;;;;;;;;;;;;;;26.26;54.61;100529.22;1808796;77;20783;-50
2021/07/13 06:28:01;;;;;;;;;;;;;;;26.26;54.63;100526.44;1809316;77;20655;-51
2021/07/13 06:30:27;;;;;;;;;;;;;;;26.27;54.63;100527.45;1727819;78;20184;-51
2021/07/13 06:32:53;;;;;;;;;;;;;;;26.27;54.65;100517.69;1794213;78;23329;-48
2021/07/13 06:35:19;;;;;;;;;;;;;;;26.28;54.66;100521.29;1801881;77;20217;-48
2021/07/13 06:37:45;;;;;;;;;;;;;;;26.28;54.67;100514.31;1803199;77;20172;-49
2021/07/13 06:40:12;;;;;;;;;;;;;;;26.28;54.68;100519.31;1803025;77;20679;-52
2021/07/13 06:42:38;;;;;;;;;;;;;;;26.28;54.67;100516.52;1804442;77;20462;-49
2021/07/13 06:45:06;;;;;;;;;;;;;;;26.28;54.70;100520.70;1804532;77;21770;-51
2021/07/13 06:47:31;;;;;;;;;;;;;;;26.28;54.71;100517.92;1804749;77;20267;-48
2021/07/13 06:49:57;;;;;;;;;;;;;;;26.29;54.71;100523.73;1803559;77;20843;-49
2021/07/13 06:52:23;;;;;;;;;;;;;;;26.29;54.72;100526.52;1803330;78;20750;-51
2021/07/13 06:54:49;;;;;;;;;;;;;;;26.29;54.74;100527.91;1805183;77;20221;-47
2021/07/13 06:57:15;;;;;;;;;;;;;;;26.28;54.74;100519.31;1799699;78;21161;-47
2021/07/13 06:59:41;;;;;;;;;;;;;;;26.29;54.74;100520.12;1804483;77;20781;-48
2021/07/13 07:02:07;;;;;;;;;;;;;;;26.29;54.77;100518.73;1803698;77;20143;-49
2021/07/13 07:04:33;;;;;;;;;;;;;;;26.29;54.78;100520.94;1808939;77;20154;-48
2021/07/13 07:06:59;;;;;;;;;;;;;;;26.28;54.81;100515.71;1797854;77;20142;-50
2021/07/13 07:09:24;;;;;;;;;;;;;;;26.29;54.80;100520.94;1803364;77;21196;-53
2021/07/13 07:11:50;;;;;;;;;;;;;;;26.30;54.80;100514.77;1804463;77;20241;-52
2021/07/13 07:14:16;;;;;;;;;;;;;;;26.29;54.81;100515.94;1797752;77;20156;-50
2021/07/13 07:16:42;;;;;;;;;;;;;;;26.28;54.83;100509.55;1803962;77;20157;-50
2021/07/13 07:19:08;;;;;;;;;;;;;;;26.29;54.84;100512.57;1800504;77;20240;-51
2021/07/13 07:21:34;;;;;;;;;;;;;;;26.28;54.85;100522.10;1804583;77;20919;-48
2021/07/13 07:24:00;;;;;;;;;;;;;;;26.30;54.86;100521.75;1807661;77;20223;-48
2021/07/13 07:26:26;;;;;;;;;;;;;;;26.29;54.87;100519.54;1803751;77;20812;-48
2021/07/13 07:28:52;;;;;;;;;;;;;;;26.29;54.90;100520.94;1801437;77;20706;-50
2021/07/13 07:31:19;;;;;;;;;;;;;;;26.30;54.90;100518.96;1810569;77;20177;-49
2021/07/13 07:33:45;;;;;;;;;;;;;;;26.28;54.90;100515.13;1809140;77;20738;-49
2021/07/13 07:36:11;;;;;;;;;;;;;;;26.29;54.91;100511.17;1808234;77;21560;-49
2021/07/13 07:38:37;;;;;;;;;;;;;;;26.30;54.93;100515.59;1809050;77;20172;-47
2021/07/13 07:41:03;;;;;;;;;;;;;;;26.30;54.95;100516.98;1812282;77;20163;-46
2021/07/13 07:43:29;;;;;;;;;;;;;;;26.29;54.94;100512.57;1810450;77;20730;-49
2021/07/13 07:45:54;;;;;;;;;;;;;;;26.31;54.96;100517.77;1807789;77;21930;-47
2021/07/13 07:48:20;;;;;;;;;;;;;;;26.30;54.97;100514.20;1810797;77;20224;-49
2021/07/13 07:50:46;;;;;;;;;;;;;;;26.30;54.98;100510.59;1808729;77;20169;-49
2021/07/13 07:53:12;;;;;;;;;;;;;;;26.31;54.98;100509.40;1809321;77;20608;-50
2021/07/13 07:55:38;;;;;;;;;;;;;;;26.30;54.98;100514.20;1811389;77;20832;-49
2021/07/13 07:58:04;;;;;;;;;;;;;;;26.30;55.00;100514.77;1813203;77;21168;-47
2021/07/13 08:00:30;;;;;;;;;;;;;;;26.30;55.00;100514.20;1810598;77;20418;-50
2021/07/13 08:02:56;;;;;;;;;;;;;;;26.30;55.02;100508.61;1810680;77;20193;-47
2021/07/13 08:05:26;;;;;;;;;;;;;;;26.30;55.03;100513.38;1809962;77;20145;-48
2021/07/13 08:07:50;;;;;;;;;;;;;;;26.30;55.03;100512.80;1807041;77;20148;-51
2021/07/13 08:10:16;;;;;;;;;;;;;;;26.30;55.05;100507.22;1805948;77;21093;-46
2021/07/13 08:12:43;;;;;;;;;;;;;;;26.30;55.05;100505.02;1808660;77;20134;-47
2021/07/13 08:15:10;;;;;;;;;;;;;;;26.30;55.06;100510.01;1808562;77;20381;-47
2021/07/13 08:17:36;;;;;;;;;;;;;;;26.31;55.08;100510.80;1805789;77;20476;-47
2021/07/13 08:20:04;;;;;;;;;;;;;;;26.31;55.08;100513.58;1811446;77;20804;-51
2021/07/13 08:22:32;;;;;;;;;;;;;;;26.32;55.09;100516.60;1808945;77;21155;-49
2021/07/13 08:24:59;;;;;;;;;;;;;;;26.31;55.11;100506.03;1808525;77;20137;-50
2021/07/13 08:27:24;;;;;;;;;;;;;;;26.31;55.11;100517.19;1810254;77;20205;-53
2021/07/13 08:29:50;;;;;;;;;;;;;;;26.31;55.12;100512.19;1804901;77;20158;-49
2021/07/13 08:32:16;;;;;;;;;;;;;;;26.32;55.13;100515.20;1801144;77;20240;-51
2021/07/13 08:34:42;;;;;;;;;;;;;;;26.32;55.16;100515.20;1801500;77;21285;-47
2021/07/13 08:37:08;;;;;;;;;;;;;;;26.32;55.17;100510.44;1799330;77;20829;-48
2021/07/13 08:39:34;;;;;;;;;;;;;;;26.31;55.19;100500.45;1799475;77;20177;-48
2021/07/13 08:42:02;;;;;;;;;;;;;;;26.33;55.18;100500.09;1803125;78;20177;-49
2021/07/13 08:44:27;;;;;;;;;;;;;;;26.33;55.20;100506.48;1796200;77;20157;-47
2021/07/13 08:46:53;;;;;;;;;;;;;;;26.33;55.20;100505.67;1799624;78;21089;-49
2021/07/13 08:49:19;;;;;;;;;;;;;;;26.33;55.23;100498.12;1802506;78;20181;-52
2021/07/13 08:51:47;;;;;;;;;;;;;;;26.34;55.24;100501.72;1749750;79;20265;-50
2021/07/13 08:54:12;;;;;;;;;;;;;;;26.34;55.22;100500.33;1802130;78;21176;-48
2021/07/13 08:56:38;;;;;;;;;;;;;;;26.34;55.26;100496.14;1794149;77;20263;-49
2021/07/13 08:59:04;;;;;;;;;;;;;;;26.34;55.26;100496.14;1798034;78;21125;-51
2021/07/13 09:01:31;;;;;;;;;;;;;;;26.35;55.27;100500.55;1798585;77;20193;-49
2021/07/13 09:03:58;;;;;;;;;;;;;;;26.35;55.29;100497.77;1798803;78;20602;-49
2021/07/13 09:06:24;;;;;;;;;;;;;;;26.34;55.29;100496.95;1799316;77;20170;-48
2021/07/13 09:08:51;;;;;;;;;;;;;;;26.35;55.29;100503.34;1788130;77;20173;-48
2021/07/13 09:11:21;;;;;;;;;;;;;;;26.34;55.33;100508.11;1796151;77;20999;-49
2021/07/13 09:13:53;;;;;;;;;;;;;;;26.35;55.34;100504.13;1795148;78;20205;-49
2021/07/13 09:16:24;;;;;;;;;;;;;;;26.35;55.35;100503.34;1798350;77;20194;-50
2021/07/13 09:18:52;;;;;;;;;;;;;;;26.35;55.36;100500.55;1800954;77;20501;-52
2021/07/13 09:21:33;;;;;;;;;;;;;;;26.35;55.38;100497.16;1806520;77;20167;-49
2021/07/13 09:24:08;;;;;;;;;;;;;;;26.35;55.39;100499.16;1801325;78;20466;-51
2021/07/13 09:26:55;;;;;;;;;;;;;;;26.35;55.40;100494.36;1799940;78;20222;-48
2021/07/13 09:29:40;;;;;;;;;;;;;;;26.36;55.42;100495.98;1795287;77;20193;-51
2021/07/13 09:32:24;;;;;;;;;;;;;;;26.36;55.44;100489.59;1797933;78;20178;-52
2021/07/13 09:34:53;;;;;;;;;;;;;;;26.35;55.44;100492.97;1794119;77;20198;-51
2021/07/13 09:37:25;;;;;;;;;;;;;;;26.37;55.45;100495.41;1798045;77;21297;-48
2021/07/13 09:40:09;;;;;;;;;;;;;;;26.38;55.47;100499.00;1795393;77;20192;-51
2021/07/13 09:42:39;;;;;;;;;;;;;;;26.39;55.46;100500.63;1742752;79;20181;-52
2021/07/13 09:45:18;;;;;;;;;;;;;;;26.39;55.50;100496.45;1722704;79;20238;-53
2021/07/13 09:47:43;;;;;;;;;;;;;;;26.40;55.50;100503.62;1799421;78;20281;-50
2021/07/13 09:50:10;;;;;;;;;;;;;;;26.40;55.51;100493.27;1799961;77;21113;-47
2021/07/13 09:52:37;;;;;;;;;;;;;;;26.38;55.47;100495.63;1800240;78;20154;-50
2021/07/13 09:55:16;;;;;;;;;;;;;;;26.32;55.35;100490.92;1796007;77;20188;-50
2021/07/13 09:57:41;;;;;;;;;;;;;;;26.25;55.27;100489.38;1799858;77;20786;-49
2021/07/13 10:00:09;;;;;;;;;;;;;;;26.18;55.22;100494.73;1799275;78;20185;-50
2021/07/13 10:02:35;;;;;;;;;;;;;;;26.11;55.18;100491.79;1796737;77;21042;-51
2021/07/13 10:05:03;;;;;;;;;;;;;;;26.06;55.12;100490.67;1775140;78;20881;-49
2021/07/13 10:07:30;;;;;;;;;;;;;;;26.02;55.06;100491.17;1802649;78;20226;-49
2021/07/13 10:09:57;;;;;;;;;;;;;;;25.98;54.98;100499.22;1797963;78;20832;-49
2021/07/13 10:12:26;;;;;;;;;;;;;;;25.94;54.90;100497.75;1796491;78;20217;-49
2021/07/13 10:14:56;;;;;;;;;;;;;;;25.90;54.80;100495.46;1795910;77;21659;-50
2021/07/13 10:17:28;;;;;;;;;;;;;;;25.87;54.73;100497.58;1791571;77;20562;-52
2021/07/13 10:20:07;;;;;;;;;;;;;;;25.83;54.65;100494.72;1774728;79;20198;-50
2021/07/13 10:22:35;;;;;;;;;;;;;;;25.81;54.53;100492.05;1734694;80;20243;-53
2021/07/13 10:25:01;;;;;;;;;;;;;;;25.80;54.45;100490.45;1734370;81;20210;-50
2021/07/13 10:27:44;;;;;;;;;;;;;;;25.81;54.45;100485.08;1764233;79;21129;-50
2021/07/13 10:30:17;;;;;;;;;;;;;;;25.83;54.48;100486.35;1737479;80;20295;-51
2021/07/13 10:32:43;;;;;;;;;;;;;;;25.88;54.52;100479.12;1789684;79;20151;-49
2021/07/13 10:35:22;;;;;;;;;;;;;;;25.93;54.57;100481.41;1778264;79;20207;-51
2021/07/13 10:37:45;;;;;;;;;;;;;;;25.97;54.59;100478.89;1740324;80;20195;-49
2021/07/13 10:40:17;;;;;;;;;;;;;;;26.01;54.61;100484.58;1719712;82;21136;-50
2021/07/13 10:42:46;;;;;;;;;;;;;;;26.03;54.64;100483.03;1737711;81;20168;-51
2021/07/13 10:45:27;;;;;;;;;;;;;;;26.07;54.66;100483.92;1802456;77;20206;-48
2021/07/13 10:48:17;;;;;;;;;;;;;;;26.09;54.66;100476.02;1807570;77;20453;-52
2021/07/13 10:51:03;;;;;;;;;;;;;;;26.12;54.65;100480.87;1803962;78;20225;-51
2021/07/13 10:53:39;;;;;;;;;;;;;;;26.15;54.62;100480.71;1805349;77;21125;-50
2021/07/13 10:56:13;;;;;;;;;;;;;;;26.14;54.39;100473.55;1804256;79;20399;-51
2021/07/13 10:58:49;;;;;;;;;;;;;;;26.10;54.22;100476.22;1805153;77;20142;-48
2021/07/13 11:01:29;;;;;;;;;;;;;;;26.08;54.10;100472.20;1808592;77;20870;-50
2021/07/13 11:03:59;;;;;;;;;;;;;;;26.08;54.12;100473.59;1806262;77;20139;-50
2021/07/13 11:06:46;;;;;;;;;;;;;;;26.10;54.14;100474.83;1801344;77;21866;-48
2021/07/13 11:09:19;;;;;;;;;;;;;;;26.12;54.20;100473.89;1810458;77;20151;-48
2021/07/13 11:11:45;;;;;;;;;;;;;;;26.15;54.16;100467.58;1809135;77;20234;-48
2021/07/13 11:14:11;;;;;;;;;;;;;;;26.15;53.97;100464.80;1809739;77;20174;-48
2021/07/13 11:16:41;;;;;;;;;;;;;;;26.13;53.83;100457.98;1802871;77;20192;-53
2021/07/13 11:19:18;;;;;;;;;;;;;;;26.10;53.68;100462.28;1813051;77;21201;-54
2021/07/13 11:21:46;;;;;;;;;;;;;;;26.07;53.63;100454.66;1810578;77;20306;-52
2021/07/13 11:24:18;;;;;;;;;;;;;;;26.06;53.57;100449.43;1810133;77;20262;-52
2021/07/13 11:26:48;;;;;;;;;;;;;;;26.08;53.61;100454.88;1809674;78;20811;-52
2021/07/13 11:29:18;;;;;;;;;;;;;;;26.11;53.65;100454.15;1774814;79;20525;-51
2021/07/13 11:31:48;;;;;;;;;;;;;;;26.18;53.68;100447.94;1739733;80;21982;-52
2021/07/13 11:34:15;;;;;;;;;;;;;;;26.22;53.66;100447.47;1765615;79;20224;-52
2021/07/13 11:36:44;;;;;;;;;;;;;;;26.26;53.63;100445.56;1731387;81;20199;-53
2021/07/13 11:39:15;;;;;;;;;;;;;;;26.29;53.60;100441.45;1730320;80;20416;-51
2021/07/13 11:41:42;;;;;;;;;;;;;;;26.34;53.59;100438.96;1751246;80;20229;-52
2021/07/13 11:44:11;;;;;;;;;;;;;;;26.39;53.56;100440.66;1743187;80;22161;-52
2021/07/13 11:46:39;;;;;;;;;;;;;;;26.43;53.53;100437.36;1737601;81;20147;-51
2021/07/13 11:49:09;;;;;;;;;;;;;;;26.45;53.51;100433.59;1775476;79;20250;-53
2021/07/13 11:51:41;;;;;;;;;;;;;;;26.48;53.48;100435.06;1754073;80;20180;-53
2021/07/13 11:54:09;;;;;;;;;;;;;;;26.53;53.47;100436.76;1765069;79;20213;-49
2021/07/13 11:56:37;;;;;;;;;;;;;;;26.55;53.46;100434.42;1772386;79;21821;-50
2021/07/13 11:59:02;;;;;;;;;;;;;;;26.58;53.41;100430.89;1732302;81;20168;-47
2021/07/13 12:01:29;;;;;;;;;;;;;;;26.62;53.40;100438.16;1724585;81;20413;-50
2021/07/13 12:04:01;;;;;;;;;;;;;;;26.65;53.37;100435.24;1733924;81;20156;-50
2021/07/13 12:06:26;;;;;;;;;;;;;;;26.67;53.35;100432.29;1731631;81;20176;-49
2021/07/13 12:09:10;;;;;;;;;;;;;;;26.69;53.34;100428.53;1724776;81;21213;-51
2021/07/13 12:11:40;;;;;;;;;;;;;;;26.72;53.32;100425.02;1727241;81;20206;-51
2021/07/13 12:14:11;;;;;;;;;;;;;;;26.75;53.30;100417.88;1730727;81;20135;-50
2021/07/13 12:16:37;;;;;;;;;;;;;;;26.77;53.30;100419.73;1741013;80;20187;-52
2021/07/13 12:19:09;;;;;;;;;;;;;;;26.79;53.28;100419.57;1740209;81;20273;-49
2021/07/13 12:21:41;;;;;;;;;;;;;;;26.81;53.27;100422.00;1768116;79;21941;-50
2021/07/13 12:24:13;;;;;;;;;;;;;;;26.83;53.29;100416.26;1750037;81;20313;-49
2021/07/13 12:26:37;;;;;;;;;;;;;;;26.85;53.24;100418.72;1745440;82;20151;-50
2021/07/13 12:29:12;;;;;;;;;;;;;;;26.88;53.25;100415.19;1739046;80;20142;-48
2021/07/13 12:31:42;;;;;;;;;;;;;;;26.89;53.27;100415.41;1778910;79;20188;-50
2021/07/13 12:34:18;;;;;;;;;;;;;;;26.91;53.26;100418.62;1744549;80;21489;-50
2021/07/13 12:36:44;;;;;;;;;;;;;;;26.94;53.25;100412.32;1727054;80;20168;-49
2021/07/13 12:39:22;;;;;;;;;;;;;;;26.95;53.26;100410.31;1753018;79;20140;-52
2021/07/13 12:42:09;;;;;;;;;;;;;;;26.97;53.26;100417.16;1728345;81;20119;-51